• Join FlightAware (Why Join?)
  • Login
  • US Flag 
08:48PM EDT


 

Airport Tracker/Info


-or-


 

Live Flight TrackerFlight Track Log ✈ ASQ4475 ✈ 09-Aug-2014 ✈ KIAH - KPNS

Flight Track Log - Related Links

Times and Time Zones

All times are in EDT time to prevent confusion due to time zone crossing. See the ASQ4475 flight status page for this flight to view local times or setup timezone preferences in your user account.

Time Position Orientation Groundspeed Altitude Reporting Facility
EDT Latitude Longitude Course Direction KTS MPH feet Rate Location/Type
09:03PM 29.9167 -93.3930 90° East  Level FlightAware Approximate
09:04PM 29.9243 -93.2666 84° East  Level FlightAware Approximate
09:05PM 29.9366 -93.1406 82° East  Level FlightAware Approximate
09:06PM 29.9524 -93.0151 82° East  Level FlightAware Approximate
09:07PM 29.9667 -92.8894 90° East  Level FlightAware Approximate
09:08PM 29.9755 -92.7632 82° East  Level FlightAware Approximate
09:09PM 29.9843 -92.6370 85° East  Level FlightAware Approximate
09:10PM 29.9937 -92.5106 85° East  Level FlightAware Approximate
09:11PM 30.0030 -92.3841 85° East  Level FlightAware Approximate
09:12PM 30.0122 -92.2576 85° East  Level FlightAware Approximate
09:13PM 30.0213 -92.1311 85° East  Level FlightAware Approximate
09:14PM 30.0302 -92.0046 85° East  Level FlightAware Approximate
09:15PM 30.0391 -91.8780 85° East  Level FlightAware Approximate
09:16PM 30.0478 -91.7514 85° East  Level FlightAware Approximate
09:17PM 30.0563 -91.6248 85° East  Level FlightAware Approximate
09:18PM 30.0648 -91.4982 86° East  Level FlightAware Approximate
09:19PM 30.0731 -91.3716 86° East  Level FlightAware Approximate
09:20PM 30.0814 -91.2449 86° East  Level FlightAware Approximate
09:21PM 30.0894 -91.1182 86° East  Level FlightAware Approximate
09:22PM 30.0974 -90.9915 86° East  Level FlightAware Approximate
09:23PM 30.1206 -90.8679 74° East  Level FlightAware Approximate
09:24PM 30.1511 -90.7458 74° East  Level FlightAware Approximate
09:25PM 30.1812 -90.6235 74° East  Level FlightAware Approximate
09:26PM 30.2108 -90.5010 74° East  Level FlightAware Approximate
09:27PM 30.2402 -90.3785 74° East  Level FlightAware Approximate
09:28PM 30.2696 -90.2559 74° East  Level FlightAware Approximate
09:29PM 30.2989 -90.1331 75° East  Level FlightAware Approximate
09:30PM 30.3280 -90.0104 75° East  Level FlightAware Approximate
09:31PM 30.3570 -89.8875 75° East  Level FlightAware Approximate
09:32PM 30.3859 -89.7646 75° East  Level FlightAware Approximate
09:33PM 30.4147 -89.6416 75° East  Level FlightAware Approximate
09:34PM 30.4520 -89.5226 74° East  Level FlightAware Approximate
09:35PM 30.4816 -89.3998 74° East  Level FlightAware Approximate
09:36PM 30.5110 -89.2769 74° East  Level FlightAware Approximate
09:37PM 30.5393 -89.1536 77° East  Level FlightAware Approximate
09:38PM 30.5642 -89.0292 77° East  Level FlightAware Approximate
09:39PM 30.5891 -88.9049 77° East  Level FlightAware Approximate
09:40PM 30.6194 -88.7823 72° East  Level FlightAware Approximate
09:41PM 30.6516 -88.6601 75° East  Level FlightAware Approximate
09:42PM 30.6806 -88.5369 75° East  Level FlightAware Approximate
09:43PM 30.7096 -88.4136 75° East  Level FlightAware Approximate
09:44PM 30.7202 -88.2869 86° East  Level FlightAware Approximate
09:45PM 30.7273 -88.1593 86° East  Level FlightAware Approximate
09:46PM 30.7346 -88.0318 85° East  Level FlightAware Approximate
09:47PM 30.7438 -87.9043 85° East  Level FlightAware Approximate
09:48PM 30.7511 -87.7768 79° East  Level FlightAware Approximate
09:49PM 30.7667 -87.6507 90° East  Level FlightAware Approximate
09:50PM 30.7677 -87.5228 83° East  Level FlightAware Approximate
09:51PM 30.7804 -87.3957 83° East  Level FlightAware Approximate
09:52PM 30.7833 -87.2680 90° East  Level FlightAware Approximate
09:53PM 30.6767 -87.2422 164° South  Level FlightAware Approximate
09:54PM 30.5715 -87.2076 170° South  Level FlightAware Approximate
09:55PM 30.4667 -87.1833 168° South  Level FlightAware Approximate
09:56PM 30.4734 -87.1866 168° South  Level Estimated
09:57PM 30.4734 -87.1866 168° South  Level Estimated
09:58PM 30.4734 -87.1866 168° South  Level Estimated
09:59PM 30.4734 -87.1866 168° South  Level Estimated
10:00PM 30.4734 -87.1866 168° South  Level Estimated
10:01PM 30.4734 -87.1866 168° South  Level Estimated
10:02PM 30.4734 -87.1866 168° South  Level Estimated
10:03PM 30.4734 -87.1866 168° South  Level Estimated
10:04PM 30.4734 -87.1866 168° South  Level Estimated
10:05PM 30.4734 -87.1866 168° South  Level Estimated
10:06PM 30.4734 -87.1866 168° South  Level Estimated
10:07PM 30.4734 -87.1866 168° South  Level Estimated
10:08PM 30.4734 -87.1866 168° South  Level Estimated
10:09PM 30.4734 -87.1866 168° South  Level Estimated
10:10PM 30.4734 -87.1866 168° South  Level Estimated
10:11PM 30.4734 -87.1866 168° South  Level Estimated